Time;durP1;ratioP1;P1;durP2;ratioP2;P2;SDS_P1;SDS_P2;PMS_P1;PMS_P2;Temp;Humidity;BMP_temperature;BMP_pressure;BME280_temperature;BME280_humidity;BME280_pressure;Samples;Min_cycle;Max_cycle;Signal;HPM_P1;HPM_P2
2021/11/02 00:01:10;;;;;;;0.45;0.45;;;;;;;;;;5062958;28;20177;-85
2021/11/02 00:03:36;;;;;;;0.10;0.10;;;;;;;;;;5045404;28;20119;-84
2021/11/02 00:06:03;;;;;;;0.03;0.03;;;;;;;;;;5062594;28;20119;-85
2021/11/02 00:08:29;;;;;;;0.10;0.10;;;;;;;;;;5063909;28;20035;-84
2021/11/02 00:10:55;;;;;;;0.10;0.10;;;;;;;;;;5046345;28;20040;-84
2021/11/02 00:13:24;;;;;;;0.20;0.20;;;;;;;;;;5064236;28;20036;-85
2021/11/02 00:15:52;;;;;;;0.20;0.20;;;;;;;;;;5045114;28;20043;-84
2021/11/02 00:18:19;;;;;;;0.20;0.20;;;;;;;;;;5056131;28;20032;-87
2021/11/02 00:20:45;;;;;;;0.15;0.15;;;;;;;;;;5062176;28;20064;-88
2021/11/02 00:23:11;;;;;;;0.15;0.15;;;;;;;;;;5046817;28;20389;-88
2021/11/02 00:25:37;;;;;;;0.10;0.10;;;;;;;;;;5046851;28;20602;-85
2021/11/02 00:28:07;;;;;;;0.10;0.10;;;;;;;;;;5043333;28;20048;-86
2021/11/02 00:30:33;;;;;;;0.15;0.15;;;;;;;;;;5044249;28;20499;-85
2021/11/02 00:32:59;;;;;;;0.10;0.10;;;;;;;;;;5043605;28;20534;-86
2021/11/02 00:35:26;;;;;;;0.10;0.10;;;;;;;;;;5062477;28;20048;-85
2021/11/02 00:37:52;;;;;;;0.43;0.43;;;;;;;;;;5064748;28;20024;-86
2021/11/02 00:40:19;;;;;;;0.10;0.10;;;;;;;;;;5061765;28;20075;-85
2021/11/02 00:42:57;;;;;;;;;;;;;;;;;;5045990;28;20032;-86
2021/11/02 00:45:34;;;;;;;0.10;0.10;;;;;;;;;;5061950;28;19916;-86
2021/11/02 00:48:02;;;;;;;0.10;0.10;;;;;;;;;;5045436;28;20093;-87
2021/11/02 00:50:29;;;;;;;0.10;0.10;;;;;;;;;;5055890;28;20028;-86
2021/11/02 00:52:55;;;;;;;;;;;;;;;;;;5065682;28;20024;-84
2021/11/02 00:55:21;;;;;;;4.57;0.25;;;;;;;;;;5063150;28;19923;-83
2021/11/02 00:57:47;;;;;;;0.10;0.10;;;;;;;;;;5061886;28;20029;-85
2021/11/02 01:00:14;;;;;;;0.10;0.10;;;;;;;;;;5062095;28;20085;-86
2021/11/02 01:02:40;;;;;;;;;;;;;;;;;;5042580;28;20275;-85
2021/11/02 01:05:07;;;;;;;0.40;0.40;;;;;;;;;;5063041;28;19916;-85
2021/11/02 01:07:33;;;;;;;0.75;0.75;;;;;;;;;;5046528;28;20046;-84
2021/11/02 01:10:01;;;;;;;0.10;0.10;;;;;;;;;;5055245;28;20039;-84
2021/11/02 01:12:27;;;;;;;0.32;0.32;;;;;;;;;;5058578;28;20036;-84
2021/11/02 01:14:53;;;;;;;0.10;0.10;;;;;;;;;;5062051;28;20044;-84
2021/11/02 01:17:19;;;;;;;0.10;0.10;;;;;;;;;;5062506;28;20032;-84
2021/11/02 01:19:45;;;;;;;0.10;0.10;;;;;;;;;;5060288;28;20032;-85
2021/11/02 01:22:11;;;;;;;0.10;0.10;;;;;;;;;;5061275;28;20032;-86
2021/11/02 01:24:38;;;;;;;0.10;0.10;;;;;;;;;;5062900;28;20111;-85
2021/11/02 01:27:04;;;;;;;0.10;0.10;;;;;;;;;;5061970;28;20030;-86
2021/11/02 01:29:30;;;;;;;0.10;0.10;;;;;;;;;;5061859;28;20048;-86
2021/11/02 01:31:56;;;;;;;0.10;0.10;;;;;;;;;;5063638;28;20399;-86
2021/11/02 01:34:22;;;;;;;0.30;0.30;;;;;;;;;;5044180;28;20622;-85
2021/11/02 01:36:49;;;;;;;0.10;0.10;;;;;;;;;;5043683;28;20825;-86
2021/11/02 01:39:15;;;;;;;0.47;0.32;;;;;;;;;;5044075;28;20040;-86
2021/11/02 01:41:41;;;;;;;0.10;0.10;;;;;;;;;;5063831;28;20495;-87
2021/11/02 01:44:08;;;;;;;0.10;0.10;;;;;;;;;;5047635;28;20045;-87
2021/11/02 01:46:35;;;;;;;0.10;0.10;;;;;;;;;;5060191;28;20438;-88
2021/11/02 01:49:03;;;;;;;3.83;0.45;;;;;;;;;;5044211;28;20036;-83
2021/11/02 01:51:30;;;;;;;0.30;0.30;;;;;;;;;;5060585;28;20020;-83
2021/11/02 01:53:56;;;;;;;0.90;0.65;;;;;;;;;;5061388;28;20051;-84
2021/11/02 01:56:23;;;;;;;0.10;0.10;;;;;;;;;;5062009;28;20036;-84
2021/11/02 01:58:52;;;;;;;0.10;0.10;;;;;;;;;;5062386;28;20593;-84
2021/11/02 02:01:51;;;;;;;0.10;0.10;;;;;;;;;;5060838;28;20119;-84
2021/11/02 02:04:23;;;;;;;0.10;0.10;;;;;;;;;;5024643;28;20574;-84
2021/11/02 02:06:49;;;;;;;0.10;0.10;;;;;;;;;;5042495;28;20076;-84
2021/11/02 02:09:22;;;;;;;0.10;0.10;;;;;;;;;;5060851;28;20060;-83
2021/11/02 02:11:48;;;;;;;0.20;0.20;;;;;;;;;;5058813;28;20049;-84
2021/11/02 02:14:29;;;;;;;0.00;0.00;;;;;;;;;;5061258;28;20091;-84
2021/11/02 02:16:56;;;;;;;0.10;0.10;;;;;;;;;;5044995;28;20025;-84
2021/11/02 02:20:01;;;;;;;0.10;0.10;;;;;;;;;;5058512;28;20395;-83
2021/11/02 02:22:32;;;;;;;0.20;0.20;;;;;;;;;;5000012;28;20036;-86
2021/11/02 02:25:07;;;;;;;1.20;0.50;;;;;;;;;;4999568;28;20048;-86
2021/11/02 02:27:46;;;;;;;0.40;0.40;;;;;;;;;;5000354;28;20148;-86
2021/11/02 02:30:13;;;;;;;0.10;0.10;;;;;;;;;;4999713;28;20129;-85
2021/11/02 02:32:41;;;;;;;0.17;0.17;;;;;;;;;;4999502;28;20034;-85
2021/11/02 02:35:11;;;;;;;0.25;0.25;;;;;;;;;;4983187;28;20044;-86
2021/11/02 02:37:38;;;;;;;0.35;0.35;;;;;;;;;;5000370;28;20501;-85
2021/11/02 02:40:05;;;;;;;0.20;0.20;;;;;;;;;;4999297;28;20038;-85
2021/11/02 02:42:33;;;;;;;0.20;0.20;;;;;;;;;;4999086;28;20038;-84
2021/11/02 02:44:59;;;;;;;0.13;0.13;;;;;;;;;;4999826;28;20108;-85
2021/11/02 02:47:26;;;;;;;0.10;0.10;;;;;;;;;;4982516;28;20038;-86
2021/11/02 02:49:53;;;;;;;0.20;0.20;;;;;;;;;;4999566;28;20041;-85
2021/11/02 02:52:20;;;;;;;0.10;0.10;;;;;;;;;;5006787;28;20034;-85
2021/11/02 02:54:47;;;;;;;0.10;0.10;;;;;;;;;;5042335;28;20040;-85
2021/11/02 02:57:14;;;;;;;0.10;0.10;;;;;;;;;;5059638;28;20032;-84
2021/11/02 02:59:41;;;;;;;0.25;0.20;;;;;;;;;;5024245;28;20839;-87
2021/11/02 03:02:11;;;;;;;0.10;0.10;;;;;;;;;;5064196;28;20033;-88
2021/11/02 03:04:38;;;;;;;0.10;0.10;;;;;;;;;;5062077;28;20047;-86
2021/11/02 03:07:05;;;;;;;0.10;0.10;;;;;;;;;;5059433;28;20919;-83
2021/11/02 03:09:31;;;;;;;0.20;0.20;;;;;;;;;;5063026;28;20044;-85
2021/11/02 03:11:58;;;;;;;0.52;0.52;;;;;;;;;;5064040;28;20804;-86
2021/11/02 03:14:33;;;;;;;0.10;0.10;;;;;;;;;;5046698;28;20045;-84
2021/11/02 03:17:07;;;;;;;0.80;0.80;;;;;;;;;;5045199;28;20042;-85
2021/11/02 03:55:25;;;;;;;0.10;0.10;;;;;;;;;;4944578;28;20164;-88
2021/11/02 04:30:33;;;;;;;0.10;0.10;;;;;;;;;;4988677;28;20038;-84
2021/11/02 05:09:04;;;;;;;0.10;0.10;;;;;;;;;;4956954;28;20094;-90
2021/11/02 05:59:47;;;;;;;0.45;0.45;;;;;;;;;;5047163;28;20464;-90
2021/11/02 06:07:33;;;;;;;4.82;2.25;;;;;;;;;;5060879;28;20475;-87
2021/11/02 06:29:24;;;;;;;5.32;3.05;;;;;;;;;;5068256;28;19920;-92
2021/11/02 06:31:57;;;;;;;3.25;2.95;;;;;;;;;;5050589;28;20067;-94
2021/11/02 06:34:40;;;;;;;6.30;3.03;;;;;;;;;;5046292;28;20040;-93
2021/11/02 07:16:11;;;;;;;3.15;2.38;;;;;;;;;;4985236;28;20540;-85
2021/11/02 07:18:38;;;;;;;1.35;1.25;;;;;;;;;;4985660;28;20038;-86
2021/11/02 07:26:16;;;;;;;2.30;0.52;;;;;;;;;;4983095;28;20030;-85
2021/11/02 08:46:37;;;;;;;1.25;0.30;;;;;;;;;;4981023;28;20729;-81
2021/11/02 08:49:04;;;;;;;0.10;0.10;;;;;;;;;;4981160;28;20046;-81
2021/11/02 08:51:31;;;;;;;0.00;0.00;;;;;;;;;;4980711;28;20563;-81
2021/11/02 08:53:57;;;;;;;0.10;0.10;;;;;;;;;;4980988;28;20094;-82
2021/11/02 08:56:23;;;;;;;0.10;0.10;;;;;;;;;;4964220;28;20149;-82
2021/11/02 08:58:50;;;;;;;0.10;0.10;;;;;;;;;;5007498;28;20033;-82
2021/11/02 09:01:18;;;;;;;0.10;0.10;;;;;;;;;;5059210;28;20313;-83
2021/11/02 09:03:46;;;;;;;0.10;0.10;;;;;;;;;;5062377;28;20845;-82
2021/11/02 09:06:15;;;;;;;0.40;0.40;;;;;;;;;;5061077;28;20049;-83
2021/11/02 09:08:42;;;;;;;0.75;0.65;;;;;;;;;;5043858;28;20032;-82
2021/11/02 09:11:08;;;;;;;5.28;0.57;;;;;;;;;;5045685;28;20583;-82
2021/11/02 09:13:35;;;;;;;0.32;0.32;;;;;;;;;;5063285;28;20029;-82
2021/11/02 09:16:01;;;;;;;0.08;0.08;;;;;;;;;;5059135;28;20047;-82
2021/11/02 09:18:29;;;;;;;0.10;0.10;;;;;;;;;;5047664;28;20070;-82
2021/11/02 09:20:56;;;;;;;0.10;0.10;;;;;;;;;;5043303;28;20854;-82
2021/11/02 09:23:22;;;;;;;0.00;0.00;;;;;;;;;;5061862;28;20025;-83
2021/11/02 09:25:51;;;;;;;3.05;2.47;;;;;;;;;;5064730;28;20032;-83
2021/11/02 09:28:18;;;;;;;0.85;0.68;;;;;;;;;;5062433;28;20040;-83
2021/11/02 09:30:45;;;;;;;1.92;0.57;;;;;;;;;;5059176;28;20058;-83
2021/11/02 09:33:11;;;;;;;0.10;0.10;;;;;;;;;;5051303;28;20516;-83
2021/11/02 09:35:37;;;;;;;0.30;0.30;;;;;;;;;;5062381;28;20040;-82
2021/11/02 09:38:21;;;;;;;0.10;0.10;;;;;;;;;;5064492;28;20138;-83
2021/11/02 09:40:48;;;;;;;3.47;0.95;;;;;;;;;;5063047;28;20028;-82
2021/11/02 09:43:41;;;;;;;0.20;0.20;;;;;;;;;;5045500;28;20058;-83
2021/11/02 09:46:13;;;;;;;0.73;0.73;;;;;;;;;;5062343;28;20036;-82
2021/11/02 09:48:58;;;;;;;0.10;0.10;;;;;;;;;;5062335;28;20081;-81
2021/11/02 09:51:24;;;;;;;0.57;0.50;;;;;;;;;;5052960;28;20035;-80
2021/11/02 09:54:04;;;;;;;0.20;0.20;;;;;;;;;;5061646;28;20411;-80
2021/11/02 09:56:31;;;;;;;1.00;0.57;;;;;;;;;;5061754;28;20025;-80
2021/11/02 09:59:10;;;;;;;0.00;0.00;;;;;;;;;;5064035;28;20479;-80
2021/11/02 10:01:49;;;;;;;0.43;0.43;;;;;;;;;;5062131;28;20131;-80
2021/11/02 10:04:30;;;;;;;0.10;0.10;;;;;;;;;;5044429;28;20036;-80
2021/11/02 10:07:01;;;;;;;0.10;0.10;;;;;;;;;;5060217;28;20078;-80
2021/11/02 10:09:47;;;;;;;1.55;0.17;;;;;;;;;;5060009;28;20648;-80
2021/11/02 10:12:17;;;;;;;0.20;0.20;;;;;;;;;;5036516;28;20036;-81
2021/11/02 10:15:02;;;;;;;14.60;1.30;;;;;;;;;;5043433;28;20040;-81
2021/11/02 10:17:36;;;;;;;0.00;0.00;;;;;;;;;;5044581;28;20029;-81
2021/11/02 10:20:17;;;;;;;0.10;0.10;;;;;;;;;;5038701;28;20523;-79
2021/11/02 10:22:53;;;;;;;0.00;0.00;;;;;;;;;;5032094;28;20372;-81
2021/11/02 10:25:38;;;;;;;0.40;0.40;;;;;;;;;;5047092;28;20685;-80
2021/11/02 10:28:19;;;;;;;0.35;0.25;;;;;;;;;;5045004;28;20059;-80
2021/11/02 10:31:15;;;;;;;0.10;0.10;;;;;;;;;;5047160;28;20037;-81
2021/11/02 10:33:48;;;;;;;0.00;0.00;;;;;;;;;;5037676;28;20126;-81
2021/11/02 10:36:47;;;;;;;0.20;0.20;;;;;;;;;;5037320;28;20291;-79
2021/11/02 10:39:23;;;;;;;0.10;0.10;;;;;;;;;;5042575;28;20024;-80
2021/11/02 10:41:51;;;;;;;0.10;0.10;;;;;;;;;;5049785;28;20032;-81
2021/11/02 10:44:28;;;;;;;0.73;0.52;;;;;;;;;;5047839;28;20021;-81
2021/11/02 10:46:59;;;;;;;3.22;1.25;;;;;;;;;;5045769;28;20037;-81
2021/11/02 10:49:29;;;;;;;0.00;0.00;;;;;;;;;;5045046;28;20705;-81
2021/11/02 10:52:05;;;;;;;0.00;0.00;;;;;;;;;;5045039;28;20155;-81
2021/11/02 10:54:42;;;;;;;0.80;0.15;;;;;;;;;;5047912;28;20036;-81
2021/11/02 10:57:11;;;;;;;0.30;0.30;;;;;;;;;;5042377;28;20025;-81
2021/11/02 10:59:41;;;;;;;0.88;0.20;;;;;;;;;;5046901;28;20060;-81
2021/11/02 11:02:13;;;;;;;0.10;0.10;;;;;;;;;;5051823;28;20024;-80
2021/11/02 11:04:40;;;;;;;0.00;0.00;;;;;;;;;;5052434;28;20037;-81
2021/11/02 11:07:06;;;;;;;0.10;0.10;;;;;;;;;;5049161;28;20041;-81
2021/11/02 11:09:33;;;;;;;0.10;0.10;;;;;;;;;;5050840;28;20041;-81
2021/11/02 11:12:01;;;;;;;0.10;0.10;;;;;;;;;;5033750;28;20025;-81
2021/11/02 11:14:31;;;;;;;0.00;0.00;;;;;;;;;;5063277;28;20044;-82
2021/11/02 11:16:58;;;;;;;0.00;0.00;;;;;;;;;;5042874;28;20016;-81
2021/11/02 11:19:28;;;;;;;0.10;0.10;;;;;;;;;;5043394;28;20029;-81
2021/11/02 11:21:56;;;;;;;0.50;0.47;;;;;;;;;;5058534;28;20051;-81
2021/11/02 11:24:40;;;;;;;2.08;0.30;;;;;;;;;;5056931;28;20067;-82
2021/11/02 11:27:08;;;;;;;0.10;0.10;;;;;;;;;;5056046;28;20290;-81
2021/11/02 11:29:49;;;;;;;0.20;0.20;;;;;;;;;;5056698;28;20732;-82
2021/11/02 11:32:17;;;;;;;0.00;0.00;;;;;;;;;;5047146;28;20445;-82
2021/11/02 11:34:45;;;;;;;0.00;0.00;;;;;;;;;;5043357;28;20044;-82
2021/11/02 11:37:12;;;;;;;0.20;0.20;;;;;;;;;;5050851;28;20495;-82
2021/11/02 11:39:38;;;;;;;;;;;;;;;;;;5052125;28;20047;-82
2021/11/02 11:42:04;;;;;;;0.00;0.00;;;;;;;;;;5052005;28;19912;-82
2021/11/02 11:44:31;;;;;;;0.30;0.30;;;;;;;;;;5029998;28;20033;-82
2021/11/02 11:47:03;;;;;;;0.28;0.28;;;;;;;;;;5060613;28;20029;-82
2021/11/02 11:49:30;;;;;;;0.20;0.20;;;;;;;;;;5054561;28;20063;-83
2021/11/02 11:51:56;;;;;;;;;;;;;;;;;;5057854;28;20033;-83
2021/11/02 11:54:22;;;;;;;1.73;0.85;;;;;;;;;;5051396;28;19929;-83
2021/11/02 11:56:49;;;;;;;0.10;0.10;;;;;;;;;;5052662;28;20029;-83
2021/11/02 11:59:20;;;;;;;0.00;0.00;;;;;;;;;;5043132;28;20745;-83
2021/11/02 12:02:00;;;;;;;0.40;0.40;;;;;;;;;;5045333;28;20124;-83
2021/11/02 12:04:39;;;;;;;0.00;0.00;;;;;;;;;;5049456;28;20078;-83
2021/11/02 12:07:25;;;;;;;0.10;0.10;;;;;;;;;;5049806;28;20083;-83
2021/11/02 12:09:53;;;;;;;0.00;0.00;;;;;;;;;;4999849;28;20042;-82
2021/11/02 12:12:22;;;;;;;0.10;0.10;;;;;;;;;;4999876;28;20046;-81
2021/11/02 12:14:55;;;;;;;0.00;0.00;;;;;;;;;;4998369;28;20064;-82
2021/11/02 12:17:22;;;;;;;0.00;0.00;;;;;;;;;;5000844;28;20592;-83
2021/11/02 12:19:51;;;;;;;0.00;0.00;;;;;;;;;;4999663;28;20524;-82
2021/11/02 12:22:22;;;;;;;0.03;0.03;;;;;;;;;;5000851;28;20592;-83
2021/11/02 12:25:01;;;;;;;4.13;0.50;;;;;;;;;;5000039;28;20947;-84
2021/11/02 12:27:36;;;;;;;0.00;0.00;;;;;;;;;;4997077;28;22552;-83
2021/11/02 12:30:06;;;;;;;0.00;0.00;;;;;;;;;;4999488;28;20030;-83
2021/11/02 12:32:45;;;;;;;0.25;0.10;;;;;;;;;;4984917;28;20904;-85
2021/11/02 12:35:13;;;;;;;0.00;0.00;;;;;;;;;;5000473;28;20046;-83
2021/11/02 12:38:00;;;;;;;0.00;0.00;;;;;;;;;;5002666;28;20963;-83
2021/11/02 12:40:28;;;;;;;2.47;0.75;;;;;;;;;;5002122;28;20141;-84
2021/11/02 12:42:54;;;;;;;0.10;0.10;;;;;;;;;;4994334;28;20060;-84
2021/11/02 12:45:21;;;;;;;0.00;0.00;;;;;;;;;;4996933;28;20033;-83
2021/11/02 12:47:49;;;;;;;0.00;0.00;;;;;;;;;;5042341;28;20040;-84
2021/11/02 12:50:16;;;;;;;0.00;0.00;;;;;;;;;;5050243;28;20029;-84
2021/11/02 12:52:44;;;;;;;0.10;0.10;;;;;;;;;;5033344;28;20029;-84
2021/11/02 12:55:13;;;;;;;0.00;0.00;;;;;;;;;;5047110;28;20052;-84
2021/11/02 12:57:39;;;;;;;0.00;0.00;;;;;;;;;;5046088;28;20523;-85
2021/11/02 13:00:07;;;;;;;0.07;0.07;;;;;;;;;;5047806;28;20052;-84
2021/11/02 13:02:34;;;;;;;0.00;0.00;;;;;;;;;;5051165;28;20265;-84
2021/11/02 13:05:20;;;;;;;0.00;0.00;;;;;;;;;;5028905;28;20036;-85
2021/11/02 13:07:51;;;;;;;1.05;0.63;;;;;;;;;;5046670;28;20435;-84
2021/11/02 13:10:19;;;;;;;0.52;0.43;;;;;;;;;;5045648;28;20043;-84
2021/11/02 13:12:48;;;;;;;0.00;0.00;;;;;;;;;;5048419;28;20492;-83
2021/11/02 13:15:14;;;;;;;0.00;0.00;;;;;;;;;;5044027;28;20040;-84
2021/11/02 13:17:45;;;;;;;0.00;0.00;;;;;;;;;;5047795;28;23892;-84
2021/11/02 13:20:12;;;;;;;0.00;0.00;;;;;;;;;;5029742;28;20028;-84
2021/11/02 13:22:38;;;;;;;14.60;0.57;;;;;;;;;;5047204;28;20025;-83
2021/11/02 13:25:05;;;;;;;0.30;0.30;;;;;;;;;;5045678;28;20036;-83
2021/11/02 13:27:31;;;;;;;0.10;0.10;;;;;;;;;;5047183;28;20726;-84
2021/11/02 13:30:17;;;;;;;0.10;0.10;;;;;;;;;;5046283;28;20407;-84
2021/11/02 13:33:04;;;;;;;0.00;0.00;;;;;;;;;;5028855;28;20309;-85
2021/11/02 13:35:56;;;;;;;0.00;0.00;;;;;;;;;;5052167;28;20044;-85
2021/11/02 13:38:31;;;;;;;0.00;0.00;;;;;;;;;;5032317;28;20508;-85
2021/11/02 13:41:08;;;;;;;1.38;0.65;;;;;;;;;;5055002;28;20846;-84
2021/11/02 13:43:34;;;;;;;0.10;0.10;;;;;;;;;;5053383;28;20021;-84
2021/11/02 13:46:01;;;;;;;0.10;0.10;;;;;;;;;;5036903;28;20046;-84
2021/11/02 13:48:27;;;;;;;;;;;;;;;;;;5038175;28;20435;-84
2021/11/02 13:50:55;;;;;;;0.10;0.10;;;;;;;;;;5052110;28;19912;-85
2021/11/02 13:53:22;;;;;;;0.00;0.00;;;;;;;;;;5052257;28;20699;-84
2021/11/02 13:55:48;;;;;;;0.10;0.10;;;;;;;;;;5041568;28;20714;-84
2021/11/02 13:58:14;;;;;;;0.10;0.10;;;;;;;;;;5052988;28;20036;-84
2021/11/02 14:00:41;;;;;;;0.10;0.10;;;;;;;;;;5035915;28;20460;-84
2021/11/02 14:03:07;;;;;;;;;;;;;;;;;;5046110;28;20025;-83
2021/11/02 14:05:34;;;;;;;0.00;0.00;;;;;;;;;;5042456;28;20676;-85
2021/11/02 14:08:00;;;;;;;0.15;0.15;;;;;;;;;;5046953;28;20515;-84
2021/11/02 14:10:30;;;;;;;0.10;0.10;;;;;;;;;;5044968;28;20032;-85
2021/11/02 14:12:56;;;;;;;0.20;0.20;;;;;;;;;;5051770;28;20677;-85
2021/11/02 14:15:29;;;;;;;0.10;0.10;;;;;;;;;;5032863;28;20378;-84
2021/11/02 14:17:55;;;;;;;0.00;0.00;;;;;;;;;;5042856;28;20017;-82
2021/11/02 14:20:33;;;;;;;0.08;0.08;;;;;;;;;;5045193;28;20489;-82
2021/11/02 14:23:03;;;;;;;0.10;0.10;;;;;;;;;;5045624;28;20025;-81
2021/11/02 14:25:39;;;;;;;0.20;0.20;;;;;;;;;;5047907;28;20051;-81
2021/11/02 14:28:06;;;;;;;0.00;0.00;;;;;;;;;;5047626;28;20056;-81
2021/11/02 14:30:32;;;;;;;0.00;0.00;;;;;;;;;;5047396;28;20103;-81
2021/11/02 14:33:17;;;;;;;0.03;0.03;;;;;;;;;;5051938;28;20675;-82
2021/11/02 14:35:48;;;;;;;0.15;0.15;;;;;;;;;;5044813;28;20083;-81
2021/11/02 14:38:17;;;;;;;0.10;0.10;;;;;;;;;;5054052;28;20488;-81
2021/11/02 14:40:45;;;;;;;0.00;0.00;;;;;;;;;;5042630;28;20060;-81
2021/11/02 14:43:15;;;;;;;2.20;0.57;;;;;;;;;;5057245;28;20028;-81
2021/11/02 14:45:45;;;;;;;0.52;0.47;;;;;;;;;;5039998;28;20025;-82
2021/11/02 14:48:23;;;;;;;0.20;0.20;;;;;;;;;;5044904;28;20412;-82
2021/11/02 14:50:50;;;;;;;0.28;0.28;;;;;;;;;;5047386;28;20025;-81
2021/11/02 14:53:16;;;;;;;0.50;0.50;;;;;;;;;;5045355;28;20024;-80
2021/11/02 14:56:11;;;;;;;0.10;0.10;;;;;;;;;;5028639;28;20143;-80
2021/11/02 14:58:43;;;;;;;0.10;0.10;;;;;;;;;;5047389;28;20516;-81
2021/11/02 15:01:22;;;;;;;2.72;0.80;;;;;;;;;;5054403;28;20106;-80
2021/11/02 15:03:52;;;;;;;0.10;0.10;;;;;;;;;;5047537;28;20513;-81
2021/11/02 15:06:19;;;;;;;0.00;0.00;;;;;;;;;;5050867;28;20049;-81
2021/11/02 15:08:46;;;;;;;0.15;0.15;;;;;;;;;;5050589;28;20110;-81
2021/11/02 15:11:13;;;;;;;0.00;0.00;;;;;;;;;;5052006;28;20037;-81
2021/11/02 15:13:39;;;;;;;;;;;;;;;;;;5050399;28;20036;-81
2021/11/02 15:16:06;;;;;;;0.00;0.00;;;;;;;;;;5055967;28;19908;-81
2021/11/02 15:18:36;;;;;;;0.00;0.00;;;;;;;;;;5052545;28;20058;-81
2021/11/02 15:21:03;;;;;;;0.10;0.10;;;;;;;;;;5053228;28;20025;-81
2021/11/02 15:23:36;;;;;;;0.00;0.00;;;;;;;;;;5045586;28;20037;-80
2021/11/02 15:26:03;;;;;;;0.08;0.08;;;;;;;;;;5058142;28;20064;-81
2021/11/02 15:28:29;;;;;;;0.00;0.00;;;;;;;;;;5039365;28;20408;-81
2021/11/02 15:31:04;;;;;;;0.30;0.30;;;;;;;;;;5056287;28;20053;-81
2021/11/02 15:33:33;;;;;;;0.00;0.00;;;;;;;;;;5053379;28;20570;-82
2021/11/02 15:36:21;;;;;;;0.10;0.10;;;;;;;;;;5049366;28;20040;-81
2021/11/02 15:38:57;;;;;;;0.00;0.00;;;;;;;;;;5050239;28;20979;-81
2021/11/02 15:41:24;;;;;;;0.00;0.00;;;;;;;;;;5052036;28;20067;-81
2021/11/02 15:43:54;;;;;;;0.25;0.25;;;;;;;;;;5055839;28;20562;-81
2021/11/02 15:46:22;;;;;;;0.32;0.32;;;;;;;;;;5051766;28;20047;-81
2021/11/02 15:48:48;;;;;;;0.10;0.10;;;;;;;;;;5035311;28;20028;-80
2021/11/02 15:51:16;;;;;;;0.05;0.05;;;;;;;;;;5051530;28;20521;-81
2021/11/02 15:53:43;;;;;;;0.70;0.38;;;;;;;;;;5047310;28;20047;-81
2021/11/02 15:56:09;;;;;;;0.10;0.10;;;;;;;;;;5047536;28;20025;-81
2021/11/02 15:58:35;;;;;;;0.20;0.20;;;;;;;;;;5049086;28;20032;-82
2021/11/02 16:01:01;;;;;;;0.00;0.00;;;;;;;;;;5048170;28;20102;-81
2021/11/02 16:03:31;;;;;;;0.20;0.20;;;;;;;;;;5048718;28;20271;-81
2021/11/02 16:05:58;;;;;;;0.70;0.32;;;;;;;;;;5046452;28;20044;-81
2021/11/02 16:08:25;;;;;;;0.10;0.10;;;;;;;;;;5047525;28;20055;-81
2021/11/02 16:10:52;;;;;;;0.10;0.10;;;;;;;;;;5048420;28;20025;-81
2021/11/02 16:13:18;;;;;;;;;;;;;;;;;;5049479;28;20936;-81
2021/11/02 16:15:44;;;;;;;0.00;0.00;;;;;;;;;;5049632;28;19921;-81
2021/11/02 16:18:18;;;;;;;0.10;0.10;;;;;;;;;;5045108;28;20436;-81
2021/11/02 16:20:44;;;;;;;0.20;0.20;;;;;;;;;;5053601;28;20474;-83
2021/11/02 16:23:15;;;;;;;0.00;0.00;;;;;;;;;;5055222;28;20039;-82
2021/11/02 16:25:43;;;;;;;0.10;0.10;;;;;;;;;;5053501;28;20439;-82
2021/11/02 16:28:19;;;;;;;0.00;0.00;;;;;;;;;;5037798;28;20527;-82
2021/11/02 16:30:47;;;;;;;0.10;0.10;;;;;;;;;;5039342;28;20501;-82
2021/11/02 16:33:14;;;;;;;2.92;0.90;;;;;;;;;;5045326;28;20024;-83
2021/11/02 16:35:43;;;;;;;10.45;0.80;;;;;;;;;;5049298;28;20049;-81
2021/11/02 16:38:23;;;;;;;0.10;0.10;;;;;;;;;;5043749;28;20082;-82
2021/11/02 16:40:55;;;;;;;0.10;0.10;;;;;;;;;;5050119;28;20106;-83
2021/11/02 16:43:30;;;;;;;0.10;0.10;;;;;;;;;;5048687;28;20052;-81
2021/11/02 16:45:56;;;;;;;0.10;0.10;;;;;;;;;;5052004;28;20039;-82
2021/11/02 16:48:33;;;;;;;0.10;0.10;;;;;;;;;;5033989;28;20028;-83
2021/11/02 16:51:00;;;;;;;0.10;0.10;;;;;;;;;;5049040;28;20544;-82
2021/11/02 16:53:26;;;;;;;0.10;0.10;;;;;;;;;;5052600;28;20475;-82
2021/11/02 16:55:52;;;;;;;0.00;0.00;;;;;;;;;;5051674;28;20322;-82
2021/11/02 16:58:21;;;;;;;0.00;0.00;;;;;;;;;;5030845;28;20033;-82
2021/11/02 17:00:48;;;;;;;0.10;0.10;;;;;;;;;;5039322;28;20039;-82
2021/11/02 17:03:19;;;;;;;0.10;0.10;;;;;;;;;;5049498;28;20062;-81
2021/11/02 17:05:47;;;;;;;0.10;0.10;;;;;;;;;;5055936;28;20093;-82
2021/11/02 17:08:13;;;;;;;3.70;0.22;;;;;;;;;;5031212;28;20415;-82
2021/11/02 17:10:39;;;;;;;0.15;0.15;;;;;;;;;;5056505;28;20017;-82
2021/11/02 17:13:27;;;;;;;1.33;1.23;;;;;;;;;;5052965;28;20033;-81
2021/11/02 17:15:54;;;;;;;0.57;0.57;;;;;;;;;;5037950;28;20048;-83
2021/11/02 17:18:25;;;;;;;0.10;0.10;;;;;;;;;;5062559;28;20029;-81
2021/11/02 17:21:00;;;;;;;0.10;0.10;;;;;;;;;;5045796;28;20047;-81
2021/11/02 17:23:26;;;;;;;0.20;0.20;;;;;;;;;;5060746;28;20016;-81
2021/11/02 17:25:53;;;;;;;0.33;0.33;;;;;;;;;;5055815;28;20036;-81
2021/11/02 17:28:19;;;;;;;0.35;0.35;;;;;;;;;;5040543;28;20612;-82
2021/11/02 17:30:45;;;;;;;0.10;0.10;;;;;;;;;;5039323;28;20183;-81
2021/11/02 17:33:12;;;;;;;0.28;0.28;;;;;;;;;;5034559;28;20116;-87
2021/11/02 17:35:38;;;;;;;0.10;0.10;;;;;;;;;;5042658;28;20128;-79
2021/11/02 17:38:05;;;;;;;2.05;0.85;;;;;;;;;;5042906;28;20052;-80
2021/11/02 17:40:32;;;;;;;0.70;0.65;;;;;;;;;;5057033;28;20029;-80
2021/11/02 17:42:59;;;;;;;0.73;0.73;;;;;;;;;;5048716;28;20058;-80
2021/11/02 17:45:26;;;;;;;3.97;2.10;;;;;;;;;;5052265;28;20036;-80
2021/11/02 17:47:53;;;;;;;0.25;0.25;;;;;;;;;;5052266;28;20028;-80
2021/11/02 17:50:20;;;;;;;0.10;0.10;;;;;;;;;;5051886;28;20039;-80
2021/11/02 17:52:47;;;;;;;0.10;0.10;;;;;;;;;;5046541;28;20024;-80
2021/11/02 17:55:13;;;;;;;0.20;0.20;;;;;;;;;;5045715;28;20076;-79
2021/11/02 17:57:43;;;;;;;0.00;0.00;;;;;;;;;;5048115;28;20029;-79
2021/11/02 18:00:11;;;;;;;0.10;0.10;;;;;;;;;;5040678;28;20548;-79
2021/11/02 18:02:38;;;;;;;0.20;0.20;;;;;;;;;;5041805;28;20064;-79
2021/11/02 18:05:04;;;;;;;;;;;;;;;;;;5045961;28;20079;-79
2021/11/02 18:07:31;;;;;;;0.05;0.05;;;;;;;;;;5047964;28;19925;-79
2021/11/02 18:09:57;;;;;;;0.10;0.10;;;;;;;;;;5050583;28;20454;-80
2021/11/02 18:12:24;;;;;;;0.10;0.10;;;;;;;;;;5037475;28;20032;-79
2021/11/02 18:14:51;;;;;;;1.95;0.60;;;;;;;;;;5044858;28;20543;-80
2021/11/02 18:17:18;;;;;;;0.00;0.00;;;;;;;;;;5057077;28;20812;-79
2021/11/02 18:19:44;;;;;;;;;;;;;;;;;;5059066;28;20103;-80
2021/11/02 18:22:10;;;;;;;0.10;0.10;;;;;;;;;;5038770;28;20270;-79
2021/11/02 18:24:36;;;;;;;0.23;0.23;;;;;;;;;;5050609;28;20040;-79
2021/11/02 18:27:02;;;;;;;0.10;0.10;;;;;;;;;;5049605;28;20694;-82
2021/11/02 18:29:30;;;;;;;0.15;0.15;;;;;;;;;;5055352;28;20040;-81
2021/11/02 18:31:57;;;;;;;0.28;0.28;;;;;;;;;;5041210;28;20029;-80
2021/11/02 18:34:23;;;;;;;0.65;0.45;;;;;;;;;;5041606;28;20128;-81
2021/11/02 18:36:50;;;;;;;0.10;0.10;;;;;;;;;;5057330;28;20043;-80
2021/11/02 18:39:18;;;;;;;0.10;0.10;;;;;;;;;;5056181;28;20039;-83
2021/11/02 18:41:44;;;;;;;2.20;1.90;;;;;;;;;;5064184;28;20135;-76
2021/11/02 18:44:10;;;;;;;0.20;0.20;;;;;;;;;;5060208;28;20024;-77
2021/11/02 18:46:37;;;;;;;2.25;2.15;;;;;;;;;;5047308;28;20302;-80
2021/11/02 18:49:03;;;;;;;0.30;0.30;;;;;;;;;;5042450;28;20446;-79
2021/11/02 18:51:29;;;;;;;0.20;0.20;;;;;;;;;;5035834;28;20283;-80
2021/11/02 18:53:55;;;;;;;3.10;1.75;;;;;;;;;;5058848;28;20479;-80
2021/11/02 18:56:21;;;;;;;0.15;0.15;;;;;;;;;;5057028;28;20056;-80
2021/11/02 18:58:47;;;;;;;0.27;0.27;;;;;;;;;;5057756;28;20044;-80
2021/11/02 19:01:13;;;;;;;0.10;0.10;;;;;;;;;;5045027;28;20152;-80
2021/11/02 19:03:39;;;;;;;1.73;0.53;;;;;;;;;;5059607;28;20896;-79
2021/11/02 19:06:06;;;;;;;0.13;0.13;;;;;;;;;;5028985;28;20052;-80
2021/11/02 19:08:32;;;;;;;0.20;0.20;;;;;;;;;;5062893;28;20064;-80
2021/11/02 19:11:00;;;;;;;0.20;0.20;;;;;;;;;;5065808;28;20028;-80
2021/11/02 19:13:26;;;;;;;0.10;0.10;;;;;;;;;;5063790;28;20074;-81
2021/11/02 19:15:52;;;;;;;0.10;0.10;;;;;;;;;;5063993;28;20106;-80
2021/11/02 19:18:18;;;;;;;0.10;0.10;;;;;;;;;;5062870;28;20043;-81
2021/11/02 19:20:45;;;;;;;0.10;0.10;;;;;;;;;;5048455;28;20024;-81
2021/11/02 19:23:11;;;;;;;0.20;0.20;;;;;;;;;;5064326;28;20025;-80
2021/11/02 19:25:37;;;;;;;0.10;0.10;;;;;;;;;;5064774;28;20044;-80
2021/11/02 19:28:03;;;;;;;0.37;0.37;;;;;;;;;;5045801;28;20044;-80
2021/11/02 19:30:30;;;;;;;0.10;0.10;;;;;;;;;;5044132;28;20657;-80
2021/11/02 19:32:56;;;;;;;0.70;0.45;;;;;;;;;;5061768;28;20094;-81
2021/11/02 19:35:22;;;;;;;0.10;0.10;;;;;;;;;;5063634;28;20047;-80
2021/11/02 19:37:48;;;;;;;0.38;0.38;;;;;;;;;;5063134;28;20124;-81
2021/11/02 19:40:14;;;;;;;0.20;0.20;;;;;;;;;;5041390;28;20071;-82
2021/11/02 19:42:41;;;;;;;0.10;0.10;;;;;;;;;;5058565;28;20029;-81
2021/11/02 19:45:08;;;;;;;0.10;0.10;;;;;;;;;;5053279;28;20512;-81
2021/11/02 19:47:34;;;;;;;0.10;0.10;;;;;;;;;;5050164;28;20029;-80
2021/11/02 19:50:01;;;;;;;0.73;0.47;;;;;;;;;;5053039;28;20103;-80
2021/11/02 19:52:27;;;;;;;0.10;0.10;;;;;;;;;;5052241;28;20059;-81
2021/11/02 19:54:53;;;;;;;0.10;0.10;;;;;;;;;;5060881;28;20049;-80
2021/11/02 19:57:21;;;;;;;0.10;0.10;;;;;;;;;;5043282;28;20495;-80
2021/11/02 19:59:48;;;;;;;0.05;0.05;;;;;;;;;;5059175;28;20356;-80